createdAt,value
2017-10-08T00:01:55.741Z,11.91
2017-10-08T00:04:23.300Z,12.02
2017-10-08T00:06:50.812Z,11.99
2017-10-08T00:09:18.621Z,11.96
2017-10-08T00:11:46.130Z,11.94
2017-10-08T00:14:13.638Z,11.91
2017-10-08T00:16:41.187Z,11.94
2017-10-08T00:19:08.694Z,11.90
2017-10-08T00:21:36.202Z,12.03
2017-10-08T00:24:03.977Z,12.07
2017-10-08T00:26:31.536Z,12.21
2017-10-08T00:28:59.046Z,12.14
2017-10-08T00:31:26.758Z,12.20
2017-10-08T00:33:54.270Z,12.19
2017-10-08T00:36:21.777Z,11.98
2017-10-08T00:38:49.536Z,11.94
2017-10-08T00:41:17.050Z,12.07
2017-10-08T00:43:44.557Z,12.27
2017-10-08T00:46:12.498Z,12.08
2017-10-08T00:48:40.011Z,12.32
2017-10-08T00:51:07.519Z,12.19
2017-10-08T00:53:35.095Z,12.02
2017-10-08T00:56:02.675Z,12.13
2017-10-08T00:58:30.260Z,11.99
2017-10-08T01:00:58.181Z,11.71
2017-10-08T01:03:25.742Z,11.75
2017-10-08T01:05:53.302Z,11.96
2017-10-08T01:08:21.166Z,12.18
2017-10-08T01:10:48.681Z,12.39
2017-10-08T01:13:16.199Z,12.22
2017-10-08T01:15:43.755Z,12.18
2017-10-08T01:18:11.320Z,12.05
2017-10-08T01:20:38.858Z,12.40
2017-10-08T01:23:06.419Z,12.23
2017-10-08T01:25:33.978Z,12.04
2017-10-08T01:28:01.488Z,11.81
2017-10-08T01:30:29.046Z,12.06
2017-10-08T01:32:56.562Z,12.22
2017-10-08T01:35:24.112Z,12.34
2017-10-08T01:37:51.886Z,11.94
2017-10-08T01:40:19.845Z,11.83
2017-10-08T01:42:48.229Z,11.92
2017-10-08T01:45:16.800Z,12.13
2017-10-08T01:47:44.439Z,12.36
2017-10-08T01:50:12.020Z,12.44
2017-10-08T01:52:39.831Z,12.19
2017-10-08T01:55:07.349Z,12.36
2017-10-08T01:57:34.908Z,12.04
2017-10-08T02:00:02.673Z,12.06
2017-10-08T02:02:30.272Z,12.10
2017-10-08T02:04:57.782Z,12.01
2017-10-08T02:07:25.451Z,11.94
2017-10-08T02:09:53.006Z,11.99
2017-10-08T02:12:20.628Z,12.04
2017-10-08T02:14:48.267Z,12.20
2017-10-08T02:17:15.779Z,11.87
2017-10-08T02:19:43.464Z,12.22
2017-10-08T02:22:11.727Z,11.80
2017-10-08T02:24:39.512Z,12.06
2017-10-08T02:27:07.115Z,12.15
2017-10-08T02:29:34.727Z,12.18
2017-10-08T02:32:02.279Z,12.03
2017-10-08T02:34:29.831Z,12.20
2017-10-08T02:36:57.626Z,12.15
2017-10-08T02:39:25.178Z,12.39
2017-10-08T02:41:52.701Z,12.03
2017-10-08T02:44:20.449Z,12.04
2017-10-08T02:46:47.959Z,12.39
2017-10-08T02:49:15.491Z,12.53
2017-10-08T02:51:43.170Z,12.23
2017-10-08T02:54:10.711Z,12.04
2017-10-08T02:56:41.241Z,12.04
2017-10-08T02:59:09.008Z,12.35
2017-10-08T03:01:36.575Z,12.28
2017-10-08T03:04:04.123Z,12.29
2017-10-08T03:06:32.399Z,12.25
2017-10-08T03:08:59.957Z,12.52
2017-10-08T03:11:27.462Z,11.97
2017-10-08T03:13:55.362Z,12.45
2017-10-08T03:16:22.870Z,12.23
2017-10-08T03:18:50.399Z,12.28
2017-10-08T03:21:17.947Z,12.01
2017-10-08T03:23:45.462Z,11.83
2017-10-08T03:26:12.974Z,11.77
2017-10-08T03:28:40.814Z,11.56
2017-10-08T03:31:08.328Z,11.71
2017-10-08T03:33:35.869Z,11.52
2017-10-08T03:36:03.434Z,11.71
2017-10-08T03:38:30.974Z,11.37
2017-10-08T03:40:58.477Z,11.75
2017-10-08T03:43:26.172Z,11.68
2017-10-08T03:45:53.755Z,11.75
2017-10-08T03:48:21.304Z,11.57
2017-10-08T03:50:49.155Z,11.47
2017-10-08T03:53:16.676Z,11.40
2017-10-08T03:55:45.186Z,11.48
2017-10-08T03:58:12.731Z,11.41
2017-10-08T04:00:40.439Z,11.38
2017-10-08T04:03:07.999Z,11.42
2017-10-08T04:05:35.621Z,11.48
2017-10-08T04:08:03.133Z,11.66
2017-10-08T04:10:30.675Z,11.50
2017-10-08T04:12:58.541Z,11.42
2017-10-08T04:15:26.108Z,11.52
2017-10-08T04:17:53.671Z,11.61
2017-10-08T04:20:21.345Z,11.27
2017-10-08T04:22:48.881Z,11.34
2017-10-08T04:25:16.448Z,11.51
2017-10-08T04:27:44.002Z,11.37
2017-10-08T04:30:11.559Z,11.50
2017-10-08T04:32:39.065Z,11.27
2017-10-08T04:35:06.624Z,11.42
2017-10-08T04:37:34.133Z,11.34
2017-10-08T04:40:01.694Z,11.51
2017-10-08T04:42:29.569Z,11.34
2017-10-08T04:44:57.082Z,11.33
2017-10-08T04:47:24.603Z,11.49
2017-10-08T04:49:52.326Z,11.39
2017-10-08T04:52:19.841Z,11.28
2017-10-08T04:54:47.391Z,11.45
2017-10-08T04:57:15.123Z,11.69
2017-10-08T04:59:42.678Z,11.75
2017-10-08T05:02:10.192Z,11.53
2017-10-08T05:04:37.897Z,11.41
2017-10-08T05:07:05.457Z,11.67
2017-10-08T05:09:32.963Z,11.41
2017-10-08T05:12:00.758Z,11.78
2017-10-08T05:14:28.270Z,11.93
2017-10-08T05:16:55.785Z,11.57
2017-10-08T05:19:23.560Z,11.63
2017-10-08T05:21:51.117Z,11.69
2017-10-08T05:24:18.635Z,11.66
2017-10-08T05:26:46.314Z,11.60
2017-10-08T05:29:13.886Z,11.67
2017-10-08T05:31:41.389Z,10.83
2017-10-08T05:34:08.930Z,10.91
2017-10-08T05:36:36.473Z,10.84
2017-10-08T05:39:04.033Z,11.05
2017-10-08T05:41:31.879Z,11.44
2017-10-08T05:43:59.389Z,12.05
2017-10-08T05:46:26.913Z,11.99
2017-10-08T05:48:54.576Z,12.13
2017-10-08T05:51:22.136Z,12.27
2017-10-08T05:53:49.693Z,12.34
2017-10-08T05:56:17.250Z,12.40
2017-10-08T05:58:44.758Z,12.27
2017-10-08T06:01:12.262Z,12.63
2017-10-08T06:03:39.934Z,12.65
2017-10-08T06:06:07.489Z,12.55
2017-10-08T06:08:35.047Z,12.62
2017-10-08T06:11:02.611Z,12.77
2017-10-08T06:13:30.176Z,12.83
2017-10-08T06:15:57.690Z,12.63
2017-10-08T06:18:25.289Z,12.83
2017-10-08T06:20:53.765Z,12.77
2017-10-08T06:23:21.323Z,12.93
2017-10-08T06:25:48.864Z,12.53
2017-10-08T06:28:16.378Z,12.46
2017-10-08T06:30:43.915Z,12.76
2017-10-08T06:33:11.486Z,12.80
2017-10-08T06:35:39.003Z,12.72
2017-10-08T06:38:06.513Z,12.84
2017-10-08T06:40:34.211Z,12.85
2017-10-08T06:43:01.773Z,12.64
2017-10-08T06:45:29.282Z,12.51
2017-10-08T06:47:56.820Z,13.15
2017-10-08T06:50:24.341Z,12.86
2017-10-08T06:52:51.854Z,13.08
2017-10-08T06:55:19.390Z,13.11
2017-10-08T06:57:46.929Z,13.06
2017-10-08T07:00:14.450Z,13.12
2017-10-08T07:02:42.165Z,13.03
2017-10-08T07:05:09.733Z,13.40
2017-10-08T07:07:37.286Z,13.20
2017-10-08T07:10:04.838Z,13.13
2017-10-08T07:12:32.349Z,13.19
2017-10-08T07:14:59.874Z,13.32
2017-10-08T07:17:27.624Z,13.27
2017-10-08T07:19:56.036Z,13.45
2017-10-08T07:22:23.663Z,13.42
2017-10-08T07:24:51.401Z,13.27
2017-10-08T07:27:18.925Z,13.71
2017-10-08T07:29:46.450Z,13.88
2017-10-08T07:32:14.017Z,14.05
2017-10-08T07:34:41.578Z,13.98
2017-10-08T07:37:09.122Z,14.25
2017-10-08T07:39:36.883Z,14.31
2017-10-08T07:42:04.399Z,14.17
2017-10-08T07:44:31.914Z,14.42
2017-10-08T07:46:59.638Z,14.11
2017-10-08T07:49:27.167Z,14.42
2017-10-08T07:51:54.691Z,14.51
2017-10-08T07:54:22.444Z,14.52
2017-10-08T07:56:49.963Z,14.66
2017-10-08T07:59:17.506Z,14.61
2017-10-08T08:01:45.325Z,14.64
2017-10-08T08:04:12.845Z,14.68
2017-10-08T08:06:40.420Z,14.26
2017-10-08T08:09:07.987Z,14.31
2017-10-08T08:11:35.507Z,14.17
2017-10-08T08:14:03.623Z,14.55
2017-10-08T08:16:31.294Z,14.74
2017-10-08T08:18:58.854Z,14.83
2017-10-08T08:21:26.373Z,14.95
2017-10-08T08:23:53.922Z,15.19
2017-10-08T08:26:21.446Z,15.03
2017-10-08T08:28:48.977Z,15.20
2017-10-08T08:31:16.751Z,15.30
2017-10-08T08:33:44.260Z,15.77
2017-10-08T08:36:11.767Z,15.81
2017-10-08T08:38:39.530Z,15.60
2017-10-08T08:41:07.045Z,15.86
2017-10-08T08:43:34.554Z,15.48
2017-10-08T08:46:02.143Z,15.71
2017-10-08T08:48:29.665Z,15.90
2017-10-08T08:50:57.274Z,15.54
2017-10-08T08:53:25.067Z,16.05
2017-10-08T08:55:52.582Z,15.82
2017-10-08T08:58:20.098Z,16.09
2017-10-08T09:00:47.973Z,16.03
2017-10-08T09:03:15.525Z,16.05
2017-10-08T09:05:43.042Z,15.44
2017-10-08T09:08:10.854Z,16.02
2017-10-08T09:10:38.358Z,16.16
2017-10-08T09:13:05.871Z,16.22
2017-10-08T09:15:33.506Z,15.51
2017-10-08T09:18:01.019Z,15.78
2017-10-08T09:20:28.543Z,15.53
2017-10-08T09:22:56.147Z,15.83
2017-10-08T09:25:23.666Z,15.87
2017-10-08T09:27:51.181Z,15.99
2017-10-08T09:30:18.727Z,15.99
2017-10-08T09:32:46.548Z,15.96
2017-10-08T09:35:14.312Z,15.76
2017-10-08T09:37:42.280Z,16.14
2017-10-08T09:40:09.941Z,16.41
2017-10-08T09:42:37.605Z,16.51
2017-10-08T09:45:05.347Z,16.98
2017-10-08T09:47:32.876Z,16.93
2017-10-08T09:50:00.404Z,17.03
2017-10-08T09:52:28.146Z,17.09
2017-10-08T09:54:55.663Z,17.04
2017-10-08T09:57:23.184Z,17.26
2017-10-08T09:59:50.760Z,17.03
2017-10-08T10:02:18.498Z,17.32
2017-10-08T10:04:46.264Z,16.99
2017-10-08T10:07:14.219Z,17.05
2017-10-08T10:09:41.825Z,17.14
2017-10-08T10:12:09.368Z,18.04
2017-10-08T10:14:37.262Z,19.17
2017-10-08T10:17:05.173Z,20.41
2017-10-08T10:19:32.951Z,20.91
2017-10-08T10:22:00.912Z,20.42
2017-10-08T10:24:28.565Z,19.59
2017-10-08T10:26:56.238Z,18.56
2017-10-08T10:29:24.220Z,18.56
2017-10-08T10:31:51.962Z,18.48
2017-10-08T10:34:19.519Z,18.80
2017-10-08T10:36:47.283Z,19.29
2017-10-08T10:39:14.863Z,18.59
2017-10-08T10:41:42.624Z,18.98
2017-10-08T10:44:10.370Z,18.65
2017-10-08T10:46:37.920Z,18.60
2017-10-08T10:49:06.105Z,18.80
2017-10-08T10:51:33.969Z,19.30
2017-10-08T10:54:01.673Z,19.90
2017-10-08T10:56:29.394Z,20.27
2017-10-08T10:58:57.253Z,20.50
2017-10-08T11:01:24.943Z,20.44
2017-10-08T11:03:52.572Z,20.42
2017-10-08T11:06:20.553Z,20.12
2017-10-08T11:08:48.317Z,19.79
2017-10-08T11:11:16.042Z,19.61
2017-10-08T11:13:43.843Z,18.94
2017-10-08T11:16:11.422Z,18.69
2017-10-08T11:18:39.475Z,18.33
2017-10-08T11:21:07.203Z,18.04
2017-10-08T11:23:34.899Z,18.17
2017-10-08T11:26:02.563Z,18.44
2017-10-08T11:28:30.632Z,18.49
2017-10-08T11:30:58.416Z,19.24
2017-10-08T11:33:26.220Z,19.30
2017-10-08T11:35:56.386Z,19.21
2017-10-08T11:38:24.248Z,18.71
2017-10-08T11:40:52.023Z,18.62
2017-10-08T11:43:20.084Z,18.65
2017-10-08T11:45:48.229Z,19.99
2017-10-08T11:48:15.917Z,25.10
2017-10-08T11:50:43.500Z,27.92
2017-10-08T11:53:11.139Z,30.28
2017-10-08T11:55:39.101Z,32.27
2017-10-08T11:58:06.973Z,31.54
2017-10-08T12:00:34.839Z,28.63
2017-10-08T12:03:02.509Z,26.79
2017-10-08T12:05:30.321Z,25.74
2017-10-08T12:07:58.133Z,24.36
2017-10-08T12:10:25.674Z,24.20
2017-10-08T12:12:53.658Z,23.35
2017-10-08T12:15:21.420Z,24.09
2017-10-08T12:17:50.122Z,26.35
2017-10-08T12:20:17.872Z,29.48
2017-10-08T12:22:45.656Z,29.83
2017-10-08T12:25:13.553Z,29.52
2017-10-08T12:27:41.390Z,26.81
2017-10-08T12:30:08.966Z,24.83
2017-10-08T12:32:36.519Z,24.49
2017-10-08T12:35:04.456Z,24.02
2017-10-08T12:37:32.136Z,23.07
2017-10-08T12:39:59.809Z,23.43
2017-10-08T12:42:27.472Z,22.74
2017-10-08T12:44:55.269Z,21.98
2017-10-08T12:47:22.833Z,21.92
2017-10-08T12:49:50.733Z,21.70
2017-10-08T12:52:18.599Z,21.17
2017-10-08T12:54:46.262Z,20.49
2017-10-08T12:57:14.208Z,19.78
2017-10-08T12:59:41.890Z,19.68
2017-10-08T13:02:09.757Z,19.35
2017-10-08T13:04:37.419Z,19.55
2017-10-08T13:07:05.184Z,19.30
2017-10-08T13:09:33.775Z,19.51
2017-10-08T13:12:01.752Z,19.26
2017-10-08T13:14:29.523Z,19.07
2017-10-08T13:16:57.261Z,18.87
2017-10-08T13:19:25.332Z,19.10
2017-10-08T13:21:53.404Z,19.52
2017-10-08T13:24:21.068Z,19.54
2017-10-08T13:26:50.570Z,19.58
2017-10-08T13:29:18.868Z,19.34
2017-10-08T13:31:46.825Z,19.17
2017-10-08T13:34:14.565Z,18.87
2017-10-08T13:36:42.138Z,19.13
2017-10-08T13:39:09.761Z,18.54
2017-10-08T13:41:37.614Z,18.55
2017-10-08T13:44:05.157Z,18.84
2017-10-08T13:46:32.693Z,18.82
2017-10-08T13:49:00.864Z,18.75
2017-10-08T13:51:28.721Z,18.33
2017-10-08T13:53:56.280Z,18.34
2017-10-08T13:56:24.261Z,18.18
2017-10-08T13:58:51.912Z,18.60
2017-10-08T14:01:19.510Z,18.47
2017-10-08T14:03:47.446Z,18.85
2017-10-08T14:06:15.305Z,18.64
2017-10-08T14:08:43.069Z,18.57
2017-10-08T14:11:10.936Z,19.23
2017-10-08T14:13:38.494Z,19.04
2017-10-08T14:16:06.068Z,18.50
2017-10-08T14:18:33.982Z,18.62
2017-10-08T14:21:02.256Z,18.64
2017-10-08T14:23:30.472Z,18.53
2017-10-08T14:25:58.543Z,18.83
2017-10-08T14:28:26.065Z,18.43
2017-10-08T14:30:53.967Z,18.54
2017-10-08T14:33:21.861Z,18.65
2017-10-08T14:35:49.391Z,18.40
2017-10-08T14:38:17.761Z,18.08
2017-10-08T14:40:46.558Z,17.80
2017-10-08T14:43:14.324Z,17.94
2017-10-08T14:45:42.093Z,17.86
2017-10-08T14:48:09.999Z,17.97
2017-10-08T14:50:37.570Z,17.94
2017-10-08T14:53:05.141Z,17.74
2017-10-08T14:55:32.723Z,18.03
2017-10-08T14:58:00.394Z,17.87
2017-10-08T15:00:28.161Z,18.29
2017-10-08T15:02:55.757Z,18.30
2017-10-08T15:05:23.535Z,17.84
2017-10-08T15:07:51.563Z,18.08
2017-10-08T15:10:19.399Z,17.81
2017-10-08T15:12:47.034Z,17.97
2017-10-08T15:15:14.715Z,17.68
2017-10-08T15:17:42.916Z,17.28
2017-10-08T15:20:10.575Z,17.41
2017-10-08T15:22:38.135Z,17.68
2017-10-08T15:25:06.310Z,17.51
2017-10-08T15:27:34.294Z,17.65
2017-10-08T15:30:02.145Z,17.38
2017-10-08T15:32:29.876Z,17.20
2017-10-08T15:34:57.674Z,17.14
2017-10-08T15:37:28.774Z,17.29
2017-10-08T15:39:56.375Z,17.52
2017-10-08T15:42:25.879Z,17.36
2017-10-08T15:44:53.440Z,17.53
2017-10-08T15:47:21.358Z,17.26
2017-10-08T15:49:49.098Z,17.72
2017-10-08T15:52:17.653Z,17.71
2017-10-08T15:54:45.825Z,17.56
2017-10-08T15:57:13.488Z,17.45
2017-10-08T15:59:41.882Z,17.38
2017-10-08T16:02:10.267Z,17.18
2017-10-08T16:04:38.007Z,17.36
2017-10-08T16:07:05.682Z,17.55
2017-10-08T16:09:33.536Z,17.40
2017-10-08T16:12:01.812Z,16.36
2017-10-08T16:14:29.489Z,16.02
2017-10-08T16:16:57.357Z,16.01
2017-10-08T16:19:25.308Z,16.11
2017-10-08T16:21:52.971Z,16.04
2017-10-08T16:24:20.740Z,15.97
2017-10-08T16:26:48.498Z,16.01
2017-10-08T16:29:16.255Z,16.11
2017-10-08T16:31:44.039Z,16.03
2017-10-08T16:34:11.778Z,16.15
2017-10-08T16:36:39.442Z,16.10
2017-10-08T16:39:07.366Z,15.85
2017-10-08T16:41:35.549Z,15.80
2017-10-08T16:44:03.264Z,15.87
2017-10-08T16:46:30.906Z,16.02
2017-10-08T16:48:58.697Z,15.84
2017-10-08T16:51:26.546Z,15.85
2017-10-08T16:53:54.515Z,15.69
2017-10-08T16:56:22.483Z,15.65
2017-10-08T16:58:50.264Z,15.67
2017-10-08T17:01:18.526Z,15.63
2017-10-08T17:03:47.004Z,15.49
2017-10-08T17:06:14.790Z,15.54
2017-10-08T17:08:42.575Z,15.72
2017-10-08T17:11:10.819Z,15.63
2017-10-08T17:13:38.893Z,15.49
2017-10-08T17:16:06.767Z,15.57
2017-10-08T17:18:34.514Z,15.47
2017-10-08T17:21:02.442Z,15.69
2017-10-08T17:23:30.700Z,15.69
2017-10-08T17:25:58.723Z,15.69
2017-10-08T17:28:26.692Z,15.46
2017-10-08T17:30:54.764Z,15.25
2017-10-08T17:33:22.597Z,15.41
2017-10-08T17:35:50.358Z,15.42
2017-10-08T17:38:18.772Z,15.49
2017-10-08T17:40:47.354Z,15.48
2017-10-08T17:43:15.145Z,15.32
2017-10-08T17:45:43.600Z,15.31
2017-10-08T17:48:11.364Z,15.43
2017-10-08T17:50:39.246Z,15.37
2017-10-08T17:53:07.242Z,15.32
2017-10-08T17:55:35.355Z,15.51
2017-10-08T17:58:03.112Z,15.27
2017-10-08T18:00:31.002Z,15.28
2017-10-08T18:02:58.881Z,15.22
2017-10-08T18:05:27.119Z,15.07
2017-10-08T18:07:55.963Z,15.03
2017-10-08T18:10:23.798Z,15.09
2017-10-08T18:12:51.626Z,14.71
2017-10-08T18:15:20.602Z,14.83
2017-10-08T18:17:49.254Z,14.77
2017-10-08T18:20:18.028Z,14.53
2017-10-08T18:22:46.099Z,14.64
2017-10-08T18:25:15.115Z,14.79
2017-10-08T18:27:43.572Z,14.74
2017-10-08T18:30:11.854Z,14.91
2017-10-08T18:32:39.630Z,14.62
2017-10-08T18:35:07.446Z,14.88
2017-10-08T18:37:35.513Z,14.76
2017-10-08T18:40:03.519Z,14.82
2017-10-08T18:42:31.319Z,14.82
2017-10-08T18:44:59.262Z,14.74
2017-10-08T18:47:27.234Z,14.56
2017-10-08T18:49:54.985Z,14.53
2017-10-08T18:52:23.160Z,14.50
2017-10-08T18:54:51.024Z,14.60
2017-10-08T18:57:18.841Z,14.50
2017-10-08T18:59:47.344Z,14.38
2017-10-08T19:02:15.145Z,14.57
2017-10-08T19:04:42.909Z,14.53
2017-10-08T19:07:12.099Z,14.45
2017-10-08T19:09:40.348Z,14.53
2017-10-08T19:12:08.240Z,14.62
2017-10-08T19:14:36.515Z,14.76
2017-10-08T19:17:05.258Z,14.86
2017-10-08T19:19:32.966Z,15.01
2017-10-08T19:22:01.240Z,14.90
2017-10-08T19:24:29.017Z,15.07
2017-10-08T19:26:56.829Z,15.00
2017-10-08T19:29:24.850Z,15.15
2017-10-08T19:31:53.220Z,14.90
2017-10-08T19:34:21.085Z,15.18
2017-10-08T19:36:49.262Z,15.10
2017-10-08T19:39:17.228Z,15.04
2017-10-08T19:41:45.093Z,14.87
2017-10-08T19:44:13.165Z,14.75
2017-10-08T19:46:41.354Z,14.87
2017-10-08T19:49:09.456Z,14.94
2017-10-08T19:51:37.746Z,15.04
2017-10-08T19:54:05.668Z,14.94
2017-10-08T19:56:33.825Z,15.01
2017-10-08T19:59:01.796Z,14.70
2017-10-08T20:01:29.664Z,14.60
2017-10-08T20:03:57.441Z,14.64
2017-10-08T20:06:25.778Z,14.30
2017-10-08T20:08:53.670Z,14.42
2017-10-08T20:11:21.437Z,14.33
2017-10-08T20:13:49.208Z,14.31
2017-10-08T20:16:17.270Z,14.31
2017-10-08T20:18:45.136Z,14.40
2017-10-08T20:21:13.070Z,14.27
2017-10-08T20:23:41.290Z,14.01
2017-10-08T20:26:09.144Z,14.06
2017-10-08T20:28:37.216Z,14.08
2017-10-08T20:31:04.994Z,14.42
2017-10-08T20:33:32.857Z,14.05
2017-10-08T20:36:02.760Z,14.15
2017-10-08T20:38:30.565Z,13.92
2017-10-08T20:40:58.394Z,13.91
2017-10-08T20:43:26.259Z,13.88
2017-10-08T20:45:54.914Z,13.90
2017-10-08T20:48:22.757Z,14.16
2017-10-08T20:50:50.782Z,14.19
2017-10-08T20:53:18.747Z,14.27
2017-10-08T20:55:46.517Z,14.46
2017-10-08T20:58:14.788Z,14.37
2017-10-08T21:00:42.652Z,14.42
2017-10-08T21:03:10.881Z,14.31
2017-10-08T21:05:39.005Z,14.16
2017-10-08T21:08:06.866Z,14.26
2017-10-08T21:10:34.958Z,14.22
2017-10-08T21:13:04.088Z,14.06
2017-10-08T21:15:32.104Z,14.00
2017-10-08T21:17:59.875Z,13.85
2017-10-08T21:20:27.773Z,13.69
2017-10-08T21:22:56.552Z,13.78
2017-10-08T21:25:24.336Z,13.57
2017-10-08T21:27:52.151Z,13.31
2017-10-08T21:30:20.652Z,13.19
2017-10-08T21:32:48.189Z,13.13
2017-10-08T21:35:16.057Z,13.14
2017-10-08T21:37:44.378Z,13.36
2017-10-08T21:40:13.863Z,13.44
2017-10-08T21:42:42.624Z,13.43
2017-10-08T21:45:10.138Z,13.45
2017-10-08T21:47:38.563Z,13.53
2017-10-08T21:50:06.302Z,13.59
2017-10-08T21:52:33.826Z,13.48
2017-10-08T21:55:01.490Z,13.65
2017-10-08T21:57:29.307Z,13.58
2017-10-08T21:59:56.875Z,13.65
2017-10-08T22:02:24.431Z,13.58
2017-10-08T22:04:52.910Z,13.55
2017-10-08T22:07:20.471Z,13.50
2017-10-08T22:09:48.881Z,13.26
2017-10-08T22:12:16.799Z,13.23
2017-10-08T22:14:44.310Z,13.48
2017-10-08T22:17:11.822Z,13.50
2017-10-08T22:19:40.523Z,13.45
2017-10-08T22:22:08.077Z,13.28
2017-10-08T22:24:35.636Z,13.49
2017-10-08T22:27:03.401Z,13.58
2017-10-08T22:29:31.881Z,13.68
2017-10-08T22:31:59.441Z,13.73
2017-10-08T22:36:53.945Z,13.74
2017-10-08T22:39:22.069Z,13.82
2017-10-08T22:41:49.883Z,13.80
2017-10-08T22:44:17.441Z,13.92
2017-10-08T22:46:45.000Z,13.72
2017-10-08T22:49:12.764Z,13.78
2017-10-08T22:51:40.532Z,13.89
2017-10-08T22:54:08.086Z,13.86
2017-10-08T22:56:36.056Z,13.91
2017-10-08T22:59:03.615Z,13.98
2017-10-08T23:01:31.144Z,14.18
2017-10-08T23:03:59.927Z,14.23
2017-10-08T23:06:27.521Z,14.26
2017-10-08T23:08:55.096Z,14.25
2017-10-08T23:11:22.674Z,14.35
2017-10-08T23:13:50.190Z,14.50
2017-10-08T23:16:17.724Z,14.56
2017-10-08T23:18:45.327Z,14.47
2017-10-08T23:21:13.182Z,14.58
2017-10-08T23:23:40.842Z,14.51
2017-10-08T23:26:08.609Z,14.60
2017-10-08T23:28:36.118Z,14.61
2017-10-08T23:31:03.623Z,14.67
2017-10-08T23:33:31.387Z,14.65
2017-10-08T23:35:58.893Z,14.56
2017-10-08T23:38:26.406Z,14.50
2017-10-08T23:40:54.086Z,14.52
2017-10-08T23:43:21.829Z,14.51
2017-10-08T23:45:49.349Z,14.51
2017-10-08T23:48:17.254Z,14.40
2017-10-08T23:50:44.770Z,14.30
2017-10-08T23:53:12.281Z,14.26
2017-10-08T23:55:40.035Z,14.15
2017-10-08T23:58:07.592Z,14.10
